createdAt,value
2022-11-29T00:01:42.415Z,15.90
2022-11-29T00:04:12.723Z,15.77
2022-11-29T00:06:41.316Z,15.03
2022-11-29T00:09:13.909Z,15.20
2022-11-29T00:12:00.502Z,14.70
2022-11-29T00:14:29.920Z,15.53
2022-11-29T00:17:02.062Z,15.33
2022-11-29T00:19:32.970Z,14.23
2022-11-29T00:22:02.458Z,13.73
2022-11-29T00:24:32.587Z,15.67
2022-11-29T00:27:03.032Z,15.17
2022-11-29T00:29:31.715Z,15.63
2022-11-29T00:32:00.745Z,15.37
2022-11-29T00:34:29.616Z,14.43
2022-11-29T00:36:59.356Z,15.30
2022-11-29T00:39:28.179Z,14.23
2022-11-29T00:41:56.641Z,13.80
2022-11-29T00:44:25.254Z,13.27
2022-11-29T00:46:54.433Z,12.90
2022-11-29T00:49:23.998Z,13.47
2022-11-29T00:51:53.471Z,12.90
2022-11-29T00:54:23.094Z,12.97
2022-11-29T00:56:51.387Z,11.77
2022-11-29T00:59:20.731Z,13.53
2022-11-29T01:01:49.311Z,12.97
2022-11-29T01:04:18.128Z,11.83
2022-11-29T01:06:46.659Z,11.80
2022-11-29T01:09:15.441Z,10.40
2022-11-29T01:11:45.647Z,9.33
2022-11-29T01:14:14.446Z,9.63
2022-11-29T01:16:44.035Z,10.20
2022-11-29T01:19:12.462Z,9.83
2022-11-29T01:21:41.240Z,9.07
2022-11-29T01:24:09.795Z,9.43
2022-11-29T01:26:38.146Z,8.77
2022-11-29T01:29:08.336Z,8.50
2022-11-29T01:31:37.127Z,7.90
2022-11-29T01:34:08.127Z,8.60
2022-11-29T01:36:36.558Z,7.60
2022-11-29T01:39:06.822Z,6.60
2022-11-29T01:41:37.919Z,6.57
2022-11-29T01:44:29.216Z,6.50
2022-11-29T01:46:58.413Z,6.67
2022-11-29T01:49:31.000Z,6.80
2022-11-29T01:52:02.228Z,6.30
2022-11-29T01:54:31.806Z,6.53
2022-11-29T01:57:00.615Z,6.90
2022-11-29T01:59:31.341Z,7.20
2022-11-29T02:02:06.187Z,7.60
2022-11-29T02:04:36.683Z,7.30
2022-11-29T02:07:05.377Z,8.60
2022-11-29T02:09:33.707Z,8.30
2022-11-29T02:12:15.421Z,8.20
2022-11-29T02:15:08.235Z,8.47
2022-11-29T02:17:46.368Z,7.97
2022-11-29T02:20:41.522Z,8.80
2022-11-29T02:23:30.449Z,8.50
2022-11-29T02:26:08.211Z,8.43
2022-11-29T02:29:12.956Z,8.17
2022-11-29T02:32:08.926Z,8.97
2022-11-29T02:34:55.295Z,8.47
2022-11-29T02:37:57.746Z,8.87
2022-11-29T02:40:54.364Z,8.90
2022-11-29T02:43:43.819Z,8.87
2022-11-29T02:46:24.631Z,9.47
2022-11-29T02:49:02.142Z,8.90
2022-11-29T02:51:42.136Z,8.53
2022-11-29T02:54:20.501Z,8.87
2022-11-29T02:56:56.271Z,9.43
2022-11-29T02:59:38.540Z,8.80
2022-11-29T03:02:18.301Z,9.00
2022-11-29T03:04:52.057Z,8.77
2022-11-29T03:07:31.357Z,9.10
2022-11-29T03:10:06.153Z,8.03
2022-11-29T03:12:41.682Z,8.33
2022-11-29T03:15:25.946Z,9.43
2022-11-29T03:18:05.201Z,9.13
2022-11-29T03:20:46.310Z,8.80
2022-11-29T03:23:23.676Z,8.60
2022-11-29T03:25:57.899Z,9.13
2022-11-29T03:28:32.225Z,9.43
2022-11-29T03:31:06.831Z,8.20
2022-11-29T03:33:42.904Z,8.03
2022-11-29T03:36:17.353Z,8.70
2022-11-29T03:38:48.481Z,8.80
2022-11-29T03:41:21.745Z,8.67
2022-11-29T03:43:57.560Z,8.70
2022-11-29T03:46:34.452Z,9.60
2022-11-29T03:49:08.832Z,8.80
2022-11-29T03:51:52.034Z,9.20
2022-11-29T03:54:26.700Z,8.80
2022-11-29T03:56:57.072Z,8.63
2022-11-29T03:59:41.904Z,8.80
2022-11-29T04:02:42.130Z,9.13
2022-11-29T04:05:35.929Z,8.10
2022-11-29T04:08:52.520Z,9.90
2022-11-29T04:11:55.729Z,9.30
2022-11-29T04:14:35.252Z,9.07
2022-11-29T04:17:40.595Z,9.20
2022-11-29T04:20:45.409Z,8.43
2022-11-29T04:23:56.227Z,9.43
2022-11-29T04:27:01.454Z,10.33
2022-11-29T04:29:49.534Z,9.70
2022-11-29T04:32:59.030Z,9.07
2022-11-29T04:35:50.622Z,9.33
2022-11-29T04:39:08.837Z,10.10
2022-11-29T04:41:56.578Z,10.03
2022-11-29T04:44:55.523Z,10.47
2022-11-29T04:47:56.743Z,10.30
2022-11-29T04:50:36.434Z,11.27
2022-11-29T04:53:23.709Z,12.37
2022-11-29T04:56:00.074Z,11.23
2022-11-29T04:58:35.048Z,10.93
2022-11-29T05:01:16.295Z,13.20
2022-11-29T05:03:56.765Z,12.33
2022-11-29T05:06:33.729Z,13.40
2022-11-29T05:09:10.260Z,12.93
2022-11-29T05:11:51.083Z,13.40
2022-11-29T05:14:31.440Z,13.40
2022-11-29T05:17:22.757Z,13.43
2022-11-29T05:20:02.112Z,15.57
2022-11-29T05:22:37.019Z,24.67
2022-11-29T05:25:30.087Z,25.33
2022-11-29T05:28:07.069Z,21.50
2022-11-29T05:31:05.336Z,22.27
2022-11-29T05:34:00.338Z,22.60
2022-11-29T05:36:39.317Z,19.53
2022-11-29T05:39:22.364Z,28.57
2022-11-29T05:42:09.084Z,19.37
2022-11-29T05:44:43.458Z,19.83
2022-11-29T05:47:18.838Z,24.43
2022-11-29T05:50:01.473Z,14.93
2022-11-29T05:52:40.889Z,15.80
2022-11-29T05:55:23.864Z,18.17
2022-11-29T05:57:59.546Z,13.80
2022-11-29T06:00:33.035Z,17.83
2022-11-29T06:03:10.520Z,14.53
2022-11-29T06:05:46.835Z,15.63
2022-11-29T06:08:22.673Z,14.13
2022-11-29T06:10:59.195Z,13.83
2022-11-29T06:13:39.726Z,13.73
2022-11-29T06:16:32.246Z,13.53
2022-11-29T06:19:37.663Z,11.40
2022-11-29T06:22:21.854Z,10.50
2022-11-29T06:25:03.829Z,11.50
2022-11-29T06:27:49.212Z,10.90
2022-11-29T06:30:22.275Z,11.73
2022-11-29T06:33:01.276Z,12.63
2022-11-29T06:35:39.192Z,13.27
2022-11-29T06:38:17.095Z,14.40
2022-11-29T06:40:45.902Z,13.53
2022-11-29T06:43:15.833Z,12.27
2022-11-29T06:45:50.818Z,12.33
2022-11-29T06:48:25.000Z,11.47
2022-11-29T06:51:02.483Z,11.90
2022-11-29T06:53:42.151Z,12.33
2022-11-29T06:56:22.426Z,10.83
2022-11-29T06:59:00.134Z,12.20
2022-11-29T07:01:38.550Z,11.43
2022-11-29T07:04:23.764Z,9.87
2022-11-29T07:06:52.832Z,10.93
2022-11-29T07:09:28.109Z,10.40
2022-11-29T07:11:56.892Z,12.20
2022-11-29T07:14:25.781Z,10.33
2022-11-29T07:17:04.181Z,10.77
2022-11-29T07:19:44.158Z,11.70
2022-11-29T07:22:30.088Z,11.27
2022-11-29T07:25:04.483Z,11.37
2022-11-29T07:27:42.225Z,9.77
2022-11-29T07:30:15.508Z,10.30
2022-11-29T07:33:00.327Z,9.90
2022-11-29T07:35:39.756Z,10.17
2022-11-29T07:38:14.400Z,10.47
2022-11-29T07:40:52.319Z,10.13
2022-11-29T07:43:31.334Z,9.83
2022-11-29T07:46:00.816Z,10.90
2022-11-29T07:48:29.066Z,11.37
2022-11-29T07:50:58.201Z,11.07
2022-11-29T07:53:26.502Z,11.30
2022-11-29T07:55:56.241Z,13.17
2022-11-29T07:58:24.900Z,15.90
2022-11-29T08:00:53.480Z,27.80
2022-11-29T08:03:22.076Z,42.43
2022-11-29T08:05:50.657Z,34.03
2022-11-29T08:08:19.012Z,26.80
2022-11-29T08:10:48.680Z,17.00
2022-11-29T08:13:22.102Z,38.67
2022-11-29T08:15:50.566Z,21.53
2022-11-29T08:18:19.027Z,18.67
2022-11-29T08:20:47.647Z,19.83
2022-11-29T08:23:17.584Z,21.27
2022-11-29T08:25:46.339Z,18.67
2022-11-29T08:28:15.473Z,16.63
2022-11-29T08:30:45.129Z,15.37
2022-11-29T08:33:13.707Z,15.73
2022-11-29T08:35:42.247Z,14.97
2022-11-29T08:38:10.795Z,12.97
2022-11-29T08:40:40.294Z,14.10
2022-11-29T08:43:08.770Z,11.90
2022-11-29T08:45:37.131Z,13.60
2022-11-29T08:48:07.786Z,12.60
2022-11-29T08:50:36.159Z,14.10
2022-11-29T08:53:22.245Z,15.97
2022-11-29T08:55:50.786Z,12.57
2022-11-29T08:58:20.985Z,12.20
2022-11-29T09:00:49.999Z,11.90
2022-11-29T09:03:37.867Z,13.10
2022-11-29T09:06:12.165Z,11.37
2022-11-29T09:08:40.938Z,11.83
2022-11-29T09:11:13.166Z,15.00
2022-11-29T09:13:42.483Z,14.97
2022-11-29T09:16:12.983Z,14.70
2022-11-29T09:18:48.510Z,12.13
2022-11-29T09:21:20.001Z,14.07
2022-11-29T09:23:48.724Z,12.27
2022-11-29T09:26:19.761Z,13.43
2022-11-29T09:28:48.030Z,16.93
2022-11-29T09:31:17.952Z,19.73
2022-11-29T09:33:48.125Z,20.10
2022-11-29T09:36:16.610Z,16.53
2022-11-29T09:38:44.866Z,22.73
2022-11-29T09:41:29.010Z,15.67
2022-11-29T09:44:06.161Z,16.80
2022-11-29T09:46:44.147Z,17.77
2022-11-29T09:49:48.388Z,14.90
2022-11-29T09:52:28.134Z,15.83
2022-11-29T09:55:10.197Z,16.97
2022-11-29T09:57:40.261Z,15.30
2022-11-29T10:00:17.605Z,15.87
2022-11-29T10:02:51.341Z,15.77
2022-11-29T10:05:26.095Z,15.50
2022-11-29T10:08:03.325Z,22.80
2022-11-29T10:10:40.790Z,15.30
2022-11-29T10:13:17.000Z,16.20
2022-11-29T10:15:48.507Z,16.50
2022-11-29T10:18:20.395Z,14.83
2022-11-29T10:20:52.735Z,16.27
2022-11-29T10:23:27.828Z,16.57
2022-11-29T10:25:57.930Z,17.57
2022-11-29T10:28:30.648Z,16.50
2022-11-29T10:31:07.400Z,17.23
2022-11-29T10:33:40.870Z,17.10
2022-11-29T10:36:40.214Z,17.37
2022-11-29T10:39:16.035Z,17.17
2022-11-29T10:41:44.505Z,18.90
2022-11-29T10:44:16.027Z,17.47
2022-11-29T10:46:44.665Z,16.47
2022-11-29T10:49:16.838Z,16.17
2022-11-29T10:51:47.384Z,16.60
2022-11-29T10:54:26.109Z,16.30
2022-11-29T10:56:56.501Z,16.93
2022-11-29T10:59:26.912Z,16.70
2022-11-29T11:01:55.823Z,16.60
2022-11-29T11:04:30.575Z,15.80
2022-11-29T11:07:02.371Z,16.73
2022-11-29T11:09:35.679Z,16.47
2022-11-29T11:12:08.254Z,16.50
2022-11-29T11:14:39.233Z,18.03
2022-11-29T11:17:20.620Z,16.13
2022-11-29T11:19:58.304Z,17.37
2022-11-29T11:22:29.607Z,17.53
2022-11-29T11:25:01.807Z,15.63
2022-11-29T11:27:35.433Z,15.60
2022-11-29T11:30:05.503Z,14.80
2022-11-29T11:32:33.767Z,14.33
2022-11-29T11:35:04.901Z,14.77
2022-11-29T11:37:37.078Z,14.23
2022-11-29T11:40:21.705Z,14.23
2022-11-29T11:42:50.327Z,14.30
2022-11-29T11:45:27.737Z,14.00
2022-11-29T11:47:58.986Z,12.67
2022-11-29T11:50:33.911Z,12.50
2022-11-29T11:53:07.103Z,11.87
2022-11-29T11:55:41.719Z,10.90
2022-11-29T11:58:19.023Z,9.97
2022-11-29T12:01:06.406Z,9.63
2022-11-29T12:03:46.027Z,9.70
2022-11-29T12:06:33.288Z,9.73
2022-11-29T12:09:10.991Z,9.10
2022-11-29T12:11:45.990Z,8.43
2022-11-29T12:14:23.914Z,8.67
2022-11-29T12:17:00.031Z,8.70
2022-11-29T12:19:36.110Z,10.03
2022-11-29T12:22:09.164Z,9.43
2022-11-29T12:24:41.723Z,11.20
2022-11-29T12:27:15.083Z,9.67
2022-11-29T12:29:43.562Z,10.73
2022-11-29T12:32:27.706Z,10.50
2022-11-29T12:35:18.936Z,9.73
2022-11-29T12:37:57.417Z,8.87
2022-11-29T12:40:32.821Z,8.33
2022-11-29T12:43:10.745Z,8.83
2022-11-29T12:45:45.913Z,9.13
2022-11-29T12:48:27.464Z,9.63
2022-11-29T12:51:05.041Z,13.00
2022-11-29T12:53:48.635Z,13.17
2022-11-29T12:56:25.816Z,13.10
2022-11-29T12:59:16.979Z,13.53
2022-11-29T13:02:02.198Z,10.90
2022-11-29T13:04:40.574Z,11.50
2022-11-29T13:07:21.240Z,10.43
2022-11-29T13:10:18.082Z,13.10
2022-11-29T13:12:52.271Z,12.20
2022-11-29T13:15:22.630Z,10.90
2022-11-29T13:17:58.582Z,11.73
2022-11-29T13:20:35.473Z,11.13
2022-11-29T13:23:13.666Z,11.17
2022-11-29T13:25:44.507Z,11.43
2022-11-29T13:28:25.288Z,7.70
2022-11-29T13:30:56.210Z,8.67
2022-11-29T13:33:31.627Z,9.90
2022-11-29T13:36:07.116Z,10.70
2022-11-29T13:38:41.492Z,12.23
2022-11-29T13:41:20.751Z,10.77
2022-11-29T13:43:58.861Z,12.30
2022-11-29T13:46:32.393Z,12.40
2022-11-29T13:49:00.726Z,9.60
2022-11-29T13:51:35.359Z,10.20
2022-11-29T13:54:05.976Z,20.03
2022-11-29T13:56:46.854Z,35.10
2022-11-29T13:59:23.785Z,15.27
2022-11-29T14:01:56.819Z,20.80
2022-11-29T14:04:46.888Z,21.73
2022-11-29T14:07:19.773Z,10.73
2022-11-29T14:09:58.312Z,35.43
2022-11-29T14:12:41.019Z,12.30
2022-11-29T14:15:31.294Z,13.93
2022-11-29T14:18:02.424Z,11.90
2022-11-29T14:21:09.662Z,10.97
2022-11-29T14:23:42.791Z,11.50
2022-11-29T14:26:28.577Z,11.97
2022-11-29T14:28:58.240Z,14.23
2022-11-29T14:31:52.396Z,14.43
2022-11-29T14:34:38.878Z,13.80
2022-11-29T14:37:42.465Z,13.33
2022-11-29T14:40:24.590Z,15.27
2022-11-29T14:42:54.003Z,14.60
2022-11-29T14:45:26.234Z,13.90
2022-11-29T14:47:57.016Z,16.20
2022-11-29T14:50:37.114Z,17.00
2022-11-29T14:53:07.844Z,17.27
2022-11-29T14:55:38.222Z,17.97
2022-11-29T14:58:27.590Z,20.40
2022-11-29T15:01:09.527Z,18.23
2022-11-29T15:03:51.006Z,19.00
2022-11-29T15:06:26.496Z,17.87
2022-11-29T15:09:03.787Z,19.33
2022-11-29T15:11:38.023Z,20.37
2022-11-29T15:14:10.994Z,21.27
2022-11-29T15:16:55.218Z,22.83
2022-11-29T15:19:51.018Z,20.83
2022-11-29T15:22:22.075Z,18.80
2022-11-29T15:24:56.506Z,18.40
2022-11-29T15:27:25.450Z,19.37
2022-11-29T15:29:53.715Z,19.77
2022-11-29T15:32:27.299Z,19.03
2022-11-29T15:34:58.148Z,18.57
2022-11-29T15:37:42.798Z,19.60
2022-11-29T15:40:14.417Z,18.50
2022-11-29T15:42:44.791Z,20.30
2022-11-29T15:45:31.427Z,22.10
2022-11-29T15:48:19.417Z,24.77
2022-11-29T15:51:01.662Z,22.63
2022-11-29T15:53:35.471Z,25.60
2022-11-29T15:56:05.955Z,21.90
2022-11-29T15:58:35.392Z,23.57
2022-11-29T16:01:05.072Z,23.43
2022-11-29T16:03:38.991Z,21.13
2022-11-29T16:06:21.851Z,21.53
2022-11-29T16:08:51.739Z,21.27
2022-11-29T16:11:27.367Z,18.50
2022-11-29T16:14:16.697Z,19.07
2022-11-29T16:16:48.292Z,21.10
2022-11-29T16:19:25.872Z,20.77
2022-11-29T16:22:14.154Z,21.90
2022-11-29T16:24:52.273Z,22.73
2022-11-29T16:27:21.975Z,22.83
2022-11-29T16:29:52.523Z,21.07
2022-11-29T16:32:27.068Z,20.73
2022-11-29T16:34:56.455Z,19.30
2022-11-29T16:37:29.697Z,21.60
2022-11-29T16:40:01.398Z,23.40
2022-11-29T16:42:31.538Z,24.67
2022-11-29T16:45:33.595Z,25.33
2022-11-29T16:48:02.861Z,26.70
2022-11-29T16:50:32.505Z,32.43
2022-11-29T16:53:35.293Z,29.10
2022-11-29T16:56:04.337Z,22.90
2022-11-29T16:58:38.772Z,25.63
2022-11-29T17:01:18.089Z,23.47
2022-11-29T17:03:46.647Z,25.27
2022-11-29T17:06:16.625Z,24.03
2022-11-29T17:08:50.451Z,24.10
2022-11-29T17:11:20.214Z,24.30
2022-11-29T17:13:50.156Z,26.03
2022-11-29T17:16:20.453Z,27.50
2022-11-29T17:18:49.024Z,28.13
2022-11-29T17:21:19.399Z,28.33
2022-11-29T17:23:49.310Z,26.00
2022-11-29T17:26:18.368Z,24.83
2022-11-29T17:28:48.394Z,28.37
2022-11-29T17:31:19.002Z,42.27
2022-11-29T17:33:48.213Z,36.07
2022-11-29T17:36:19.672Z,31.77
2022-11-29T17:38:50.095Z,29.57
2022-11-29T17:41:22.553Z,30.27
2022-11-29T17:43:51.409Z,27.47
2022-11-29T17:46:22.330Z,26.90
2022-11-29T17:48:52.226Z,24.43
2022-11-29T17:51:50.761Z,23.57
2022-11-29T17:54:12.220Z,26.03
2022-11-29T17:56:40.735Z,27.47
2022-11-29T17:59:09.239Z,28.67
2022-11-29T18:01:37.684Z,26.63
2022-11-29T18:04:08.322Z,27.30
2022-11-29T18:06:38.720Z,30.70
2022-11-29T18:09:09.104Z,30.40
2022-11-29T18:11:47.996Z,30.73
2022-11-29T18:14:19.142Z,27.80
2022-11-29T18:16:47.572Z,28.17
2022-11-29T18:19:18.717Z,25.37
2022-11-29T18:21:47.408Z,29.53
2022-11-29T18:24:17.059Z,30.87
2022-11-29T18:26:48.091Z,25.63
2022-11-29T18:29:17.467Z,28.93
2022-11-29T18:31:47.814Z,28.90
2022-11-29T18:34:16.955Z,29.30
2022-11-29T18:36:48.886Z,27.97
2022-11-29T18:39:19.874Z,27.37
2022-11-29T18:41:52.058Z,27.20
2022-11-29T18:44:22.071Z,25.10
2022-11-29T18:46:51.646Z,27.40
2022-11-29T18:49:20.211Z,29.97
2022-11-29T18:51:50.753Z,29.00
2022-11-29T18:54:19.938Z,27.53
2022-11-29T18:56:51.735Z,26.37
2022-11-29T18:59:21.942Z,26.60
2022-11-29T19:01:50.447Z,29.33
2022-11-29T19:04:21.025Z,32.07
2022-11-29T19:06:50.692Z,32.43
2022-11-29T19:09:22.128Z,35.63
2022-11-29T19:11:52.575Z,34.17
2022-11-29T19:14:21.116Z,32.57
2022-11-29T19:16:50.868Z,32.90
2022-11-29T19:19:19.900Z,32.30
2022-11-29T19:21:49.613Z,33.90
2022-11-29T19:24:20.377Z,33.03
2022-11-29T19:26:55.456Z,34.53
2022-11-29T19:29:23.787Z,35.73
2022-11-29T19:31:52.343Z,33.63
2022-11-29T19:34:20.766Z,33.37
2022-11-29T19:36:49.419Z,31.90
2022-11-29T19:39:18.756Z,34.23
2022-11-29T19:41:49.783Z,34.57
2022-11-29T19:44:20.716Z,33.43
2022-11-29T19:46:49.784Z,32.50
2022-11-29T19:49:18.311Z,33.47
2022-11-29T19:51:46.777Z,32.77
2022-11-29T19:54:15.639Z,34.53
2022-11-29T19:56:44.277Z,34.57
2022-11-29T19:59:13.047Z,36.13
2022-11-29T20:01:43.387Z,38.03
2022-11-29T20:04:13.981Z,34.80
2022-11-29T20:06:42.680Z,36.87
2022-11-29T20:09:11.588Z,39.20
2022-11-29T20:11:40.951Z,37.73
2022-11-29T20:14:11.749Z,37.30
2022-11-29T20:16:40.253Z,38.70
2022-11-29T20:19:13.496Z,38.27
2022-11-29T20:21:44.010Z,34.93
2022-11-29T20:24:14.340Z,36.90
2022-11-29T20:26:45.556Z,36.90
2022-11-29T20:29:15.271Z,37.23
2022-11-29T20:31:50.009Z,37.83
2022-11-29T20:34:20.877Z,41.17
2022-11-29T20:37:22.110Z,37.63
2022-11-29T20:39:57.551Z,39.27
2022-11-29T20:42:47.467Z,42.73
2022-11-29T20:45:17.630Z,40.03
2022-11-29T20:47:52.088Z,38.87
2022-11-29T20:50:24.149Z,38.10
2022-11-29T20:53:08.157Z,39.60
2022-11-29T20:55:42.550Z,39.17
2022-11-29T20:58:14.874Z,39.33
2022-11-29T21:00:43.349Z,40.53
2022-11-29T21:03:14.166Z,39.40
2022-11-29T21:05:43.902Z,37.33
2022-11-29T21:08:12.576Z,38.83
2022-11-29T21:10:41.517Z,36.33
2022-11-29T21:13:12.361Z,35.37
2022-11-29T21:15:41.880Z,36.87
2022-11-29T21:18:20.867Z,34.30
2022-11-29T21:21:02.997Z,35.00
2022-11-29T21:23:43.735Z,34.43
2022-11-29T21:26:17.072Z,34.27
2022-11-29T21:28:55.734Z,35.10
2022-11-29T21:31:24.646Z,34.87
2022-11-29T21:33:53.579Z,33.10
2022-11-29T21:36:23.318Z,33.27
2022-11-29T21:38:55.231Z,32.43
2022-11-29T21:41:23.830Z,33.80
2022-11-29T21:44:06.399Z,34.03
2022-11-29T21:46:36.549Z,31.27
2022-11-29T21:49:05.425Z,32.87
2022-11-29T21:51:35.030Z,34.73
2022-11-29T21:54:03.582Z,31.30
2022-11-29T21:56:31.984Z,33.23
2022-11-29T21:59:00.284Z,32.47
2022-11-29T22:01:29.477Z,32.43
2022-11-29T22:03:57.760Z,30.10
2022-11-29T22:06:26.409Z,30.50
2022-11-29T22:08:56.420Z,29.40
2022-11-29T22:11:31.795Z,27.83
2022-11-29T22:14:18.346Z,29.87
2022-11-29T22:16:48.949Z,29.77
2022-11-29T22:19:19.274Z,29.87
2022-11-29T22:21:49.172Z,28.57
2022-11-29T22:24:21.012Z,31.23
2022-11-29T22:26:50.193Z,30.87
2022-11-29T22:29:18.875Z,30.93
2022-11-29T22:31:49.221Z,29.47
2022-11-29T22:34:17.732Z,31.70
2022-11-29T22:36:46.318Z,30.83
2022-11-29T22:39:14.983Z,31.73
2022-11-29T22:41:49.258Z,30.00
2022-11-29T22:44:20.854Z,32.77
2022-11-29T22:46:49.215Z,31.93
2022-11-29T22:49:17.577Z,34.93
2022-11-29T22:51:45.859Z,33.87
2022-11-29T22:54:15.423Z,33.33
2022-11-29T22:56:46.457Z,33.17
2022-11-29T22:59:15.367Z,33.07
2022-11-29T23:01:44.157Z,32.13
2022-11-29T23:04:13.625Z,33.03
2022-11-29T23:06:43.813Z,31.80
2022-11-29T23:09:15.954Z,32.33
2022-11-29T23:11:50.876Z,32.10
2022-11-29T23:14:19.419Z,31.80
2022-11-29T23:16:48.022Z,31.27
2022-11-29T23:19:17.883Z,30.73
2022-11-29T23:21:46.480Z,30.07
2022-11-29T23:24:15.538Z,30.30
2022-11-29T23:26:47.531Z,30.93
2022-11-29T23:29:17.816Z,30.93
2022-11-29T23:31:46.632Z,30.50
2022-11-29T23:34:15.032Z,29.83
2022-11-29T23:36:48.228Z,30.30
2022-11-29T23:39:19.585Z,30.77
2022-11-29T23:41:49.282Z,29.30
2022-11-29T23:44:17.510Z,29.93
2022-11-29T23:46:45.770Z,30.43
2022-11-29T23:49:14.164Z,29.83
2022-11-29T23:51:42.722Z,30.77
2022-11-29T23:54:10.979Z,30.20
2022-11-29T23:56:39.196Z,29.67
2022-11-29T23:59:09.071Z,31.40
